sensor_id;sensor_type;location;lat;lon;timestamp;P1;durP1;ratioP1;P2;durP2;ratioP2
22665;SDS011;11499;49.486;11.104;2022-10-14T00:02:19;11.70;;;10.13;;
22665;SDS011;11499;49.486;11.104;2022-10-14T00:04:44;10.97;;;9.87;;
22665;SDS011;11499;49.486;11.104;2022-10-14T00:07:10;12.83;;;10.10;;
22665;SDS011;11499;49.486;11.104;2022-10-14T00:09:36;13.00;;;10.17;;
22665;SDS011;11499;49.486;11.104;2022-10-14T00:12:03;11.43;;;9.93;;
22665;SDS011;11499;49.486;11.104;2022-10-14T00:14:29;10.33;;;8.83;;
22665;SDS011;11499;49.486;11.104;2022-10-14T00:16:54;9.90;;;8.87;;
22665;SDS011;11499;49.486;11.104;2022-10-14T00:22:18;12.77;;;8.93;;
22665;SDS011;11499;49.486;11.104;2022-10-14T00:24:44;10.90;;;8.50;;
22665;SDS011;11499;49.486;11.104;2022-10-14T00:27:09;11.83;;;9.17;;
22665;SDS011;11499;49.486;11.104;2022-10-14T00:29:35;12.73;;;9.40;;
22665;SDS011;11499;49.486;11.104;2022-10-14T00:32:00;12.77;;;8.97;;
22665;SDS011;11499;49.486;11.104;2022-10-14T00:34:26;14.03;;;10.03;;
22665;SDS011;11499;49.486;11.104;2022-10-14T00:36:51;10.87;;;9.80;;
22665;SDS011;11499;49.486;11.104;2022-10-14T00:39:17;10.30;;;8.93;;
22665;SDS011;11499;49.486;11.104;2022-10-14T00:41:42;10.00;;;9.00;;
22665;SDS011;11499;49.486;11.104;2022-10-14T00:49:54;10.20;;;8.73;;
22665;SDS011;11499;49.486;11.104;2022-10-14T00:52:14;11.70;;;9.17;;
22665;SDS011;11499;49.486;11.104;2022-10-14T00:54:43;10.77;;;9.40;;
22665;SDS011;11499;49.486;11.104;2022-10-14T00:57:12;11.93;;;9.73;;
22665;SDS011;11499;49.486;11.104;2022-10-14T00:59:38;10.30;;;9.30;;
22665;SDS011;11499;49.486;11.104;2022-10-14T01:02:04;11.07;;;9.40;;
22665;SDS011;11499;49.486;11.104;2022-10-14T01:04:30;11.30;;;10.00;;
22665;SDS011;11499;49.486;11.104;2022-10-14T01:07:07;14.53;;;9.93;;
22665;SDS011;11499;49.486;11.104;2022-10-14T01:15:36;15.13;;;12.57;;
22665;SDS011;11499;49.486;11.104;2022-10-14T01:32:05;20.20;;;14.27;;
22665;SDS011;11499;49.486;11.104;2022-10-14T01:34:38;16.47;;;13.80;;
22665;SDS011;11499;49.486;11.104;2022-10-14T01:37:10;14.67;;;12.93;;
22665;SDS011;11499;49.486;11.104;2022-10-14T01:42:41;14.53;;;12.37;;
22665;SDS011;11499;49.486;11.104;2022-10-14T01:45:10;16.33;;;12.60;;
22665;SDS011;11499;49.486;11.104;2022-10-14T01:47:39;18.93;;;12.77;;
22665;SDS011;11499;49.486;11.104;2022-10-14T01:50:13;17.63;;;13.80;;
22665;SDS011;11499;49.486;11.104;2022-10-14T01:52:43;16.80;;;13.40;;
22665;SDS011;11499;49.486;11.104;2022-10-14T01:55:14;17.33;;;13.50;;
22665;SDS011;11499;49.486;11.104;2022-10-14T01:57:43;15.97;;;12.83;;
22665;SDS011;11499;49.486;11.104;2022-10-14T02:00:11;15.60;;;13.93;;
22665;SDS011;11499;49.486;11.104;2022-10-14T02:02:37;17.93;;;13.80;;
22665;SDS011;11499;49.486;11.104;2022-10-14T02:05:04;19.03;;;13.37;;
22665;SDS011;11499;49.486;11.104;2022-10-14T02:10:20;18.20;;;12.67;;
22665;SDS011;11499;49.486;11.104;2022-10-14T02:13:14;15.03;;;12.37;;
22665;SDS011;11499;49.486;11.104;2022-10-14T02:16:17;18.20;;;15.07;;
22665;SDS011;11499;49.486;11.104;2022-10-14T02:21:36;17.47;;;14.83;;
22665;SDS011;11499;49.486;11.104;2022-10-14T02:24:19;21.07;;;16.00;;
22665;SDS011;11499;49.486;11.104;2022-10-14T02:27:07;17.57;;;14.33;;
22665;SDS011;11499;49.486;11.104;2022-10-14T02:29:36;18.90;;;15.17;;
22665;SDS011;11499;49.486;11.104;2022-10-14T02:32:04;19.70;;;14.43;;
22665;SDS011;11499;49.486;11.104;2022-10-14T02:37:31;19.57;;;14.37;;
22665;SDS011;11499;49.486;11.104;2022-10-14T02:40:09;17.40;;;14.50;;
22665;SDS011;11499;49.486;11.104;2022-10-14T02:42:38;15.40;;;13.60;;
22665;SDS011;11499;49.486;11.104;2022-10-14T02:45:05;15.73;;;13.27;;
22665;SDS011;11499;49.486;11.104;2022-10-14T02:47:31;16.77;;;13.50;;
22665;SDS011;11499;49.486;11.104;2022-10-14T02:49:57;20.13;;;14.13;;
22665;SDS011;11499;49.486;11.104;2022-10-14T02:52:22;19.00;;;13.27;;
22665;SDS011;11499;49.486;11.104;2022-10-14T02:54:48;18.37;;;14.10;;
22665;SDS011;11499;49.486;11.104;2022-10-14T02:57:13;17.00;;;12.77;;
22665;SDS011;11499;49.486;11.104;2022-10-14T02:59:39;16.00;;;13.87;;
22665;SDS011;11499;49.486;11.104;2022-10-14T03:02:05;18.70;;;14.47;;
22665;SDS011;11499;49.486;11.104;2022-10-14T03:04:31;16.03;;;14.40;;
22665;SDS011;11499;49.486;11.104;2022-10-14T03:09:38;17.40;;;14.30;;
22665;SDS011;11499;49.486;11.104;2022-10-14T03:12:04;20.67;;;15.77;;
22665;SDS011;11499;49.486;11.104;2022-10-14T03:14:29;19.13;;;15.20;;
22665;SDS011;11499;49.486;11.104;2022-10-14T03:16:55;22.03;;;15.57;;
22665;SDS011;11499;49.486;11.104;2022-10-14T03:19:20;20.03;;;14.63;;
22665;SDS011;11499;49.486;11.104;2022-10-14T03:21:46;18.53;;;15.40;;
22665;SDS011;11499;49.486;11.104;2022-10-14T03:24:13;17.73;;;15.50;;
22665;SDS011;11499;49.486;11.104;2022-10-14T03:26:38;17.47;;;15.60;;
22665;SDS011;11499;49.486;11.104;2022-10-14T03:29:04;18.53;;;14.90;;
22665;SDS011;11499;49.486;11.104;2022-10-14T03:31:29;19.43;;;15.83;;
22665;SDS011;11499;49.486;11.104;2022-10-14T03:36:38;21.37;;;15.80;;
22665;SDS011;11499;49.486;11.104;2022-10-14T03:39:03;19.10;;;15.63;;
22665;SDS011;11499;49.486;11.104;2022-10-14T03:41:29;17.27;;;15.07;;
22665;SDS011;11499;49.486;11.104;2022-10-14T03:43:55;17.97;;;15.13;;
22665;SDS011;11499;49.486;11.104;2022-10-14T03:46:20;17.27;;;15.43;;
22665;SDS011;11499;49.486;11.104;2022-10-14T03:48:46;19.57;;;15.83;;
22665;SDS011;11499;49.486;11.104;2022-10-14T03:51:11;17.53;;;14.63;;
22665;SDS011;11499;49.486;11.104;2022-10-14T03:53:37;19.13;;;14.67;;
22665;SDS011;11499;49.486;11.104;2022-10-14T03:56:03;17.33;;;14.80;;
22665;SDS011;11499;49.486;11.104;2022-10-14T04:02:08;17.83;;;14.67;;
22665;SDS011;11499;49.486;11.104;2022-10-14T04:04:34;15.80;;;14.10;;
22665;SDS011;11499;49.486;11.104;2022-10-14T04:06:59;16.57;;;14.50;;
22665;SDS011;11499;49.486;11.104;2022-10-14T04:09:25;17.43;;;14.80;;
22665;SDS011;11499;49.486;11.104;2022-10-14T04:11:51;18.20;;;14.13;;
22665;SDS011;11499;49.486;11.104;2022-10-14T04:14:17;17.07;;;15.17;;
22665;SDS011;11499;49.486;11.104;2022-10-14T04:16:42;16.47;;;14.73;;
22665;SDS011;11499;49.486;11.104;2022-10-14T04:19:08;18.27;;;14.77;;
22665;SDS011;11499;49.486;11.104;2022-10-14T04:21:33;16.07;;;14.30;;
22665;SDS011;11499;49.486;11.104;2022-10-14T04:23:59;16.33;;;14.23;;
22665;SDS011;11499;49.486;11.104;2022-10-14T04:29:00;19.73;;;14.60;;
22665;SDS011;11499;49.486;11.104;2022-10-14T04:31:26;17.93;;;14.97;;
22665;SDS011;11499;49.486;11.104;2022-10-14T04:33:51;19.47;;;15.43;;
22665;SDS011;11499;49.486;11.104;2022-10-14T04:36:17;18.57;;;14.63;;
22665;SDS011;11499;49.486;11.104;2022-10-14T04:38:43;19.93;;;15.03;;
22665;SDS011;11499;49.486;11.104;2022-10-14T04:41:08;18.53;;;16.33;;
22665;SDS011;11499;49.486;11.104;2022-10-14T04:43:34;19.30;;;17.13;;
22665;SDS011;11499;49.486;11.104;2022-10-14T04:45:59;16.50;;;14.73;;
22665;SDS011;11499;49.486;11.104;2022-10-14T04:48:25;18.13;;;15.53;;
22665;SDS011;11499;49.486;11.104;2022-10-14T04:50:51;18.93;;;15.83;;
22665;SDS011;11499;49.486;11.104;2022-10-14T04:55:58;19.40;;;16.57;;
22665;SDS011;11499;49.486;11.104;2022-10-14T04:58:24;21.27;;;17.43;;
22665;SDS011;11499;49.486;11.104;2022-10-14T05:00:49;19.50;;;17.40;;
22665;SDS011;11499;49.486;11.104;2022-10-14T05:03:18;25.50;;;18.30;;
22665;SDS011;11499;49.486;11.104;2022-10-14T05:05:43;23.13;;;18.10;;
22665;SDS011;11499;49.486;11.104;2022-10-14T05:08:09;18.00;;;16.13;;
22665;SDS011;11499;49.486;11.104;2022-10-14T05:10:35;19.67;;;17.67;;
22665;SDS011;11499;49.486;11.104;2022-10-14T05:13:00;20.77;;;17.10;;
22665;SDS011;11499;49.486;11.104;2022-10-14T05:15:26;22.70;;;18.90;;
22665;SDS011;11499;49.486;11.104;2022-10-14T05:17:51;24.13;;;19.97;;
22665;SDS011;11499;49.486;11.104;2022-10-14T05:22:50;24.37;;;18.70;;
22665;SDS011;11499;49.486;11.104;2022-10-14T05:25:16;18.60;;;16.57;;
22665;SDS011;11499;49.486;11.104;2022-10-14T05:27:42;19.57;;;17.67;;
22665;SDS011;11499;49.486;11.104;2022-10-14T05:30:08;21.50;;;17.77;;
22665;SDS011;11499;49.486;11.104;2022-10-14T05:32:34;19.97;;;17.83;;
22665;SDS011;11499;49.486;11.104;2022-10-14T05:34:59;18.47;;;16.60;;
22665;SDS011;11499;49.486;11.104;2022-10-14T05:37:25;21.50;;;15.83;;
22665;SDS011;11499;49.486;11.104;2022-10-14T05:39:50;18.87;;;16.73;;
22665;SDS011;11499;49.486;11.104;2022-10-14T05:42:16;21.63;;;16.73;;
22665;SDS011;11499;49.486;11.104;2022-10-14T05:44:41;19.30;;;15.30;;
22665;SDS011;11499;49.486;11.104;2022-10-14T05:50:06;18.20;;;14.63;;
22665;SDS011;11499;49.486;11.104;2022-10-14T05:52:32;20.47;;;15.53;;
22665;SDS011;11499;49.486;11.104;2022-10-14T05:54:59;17.30;;;15.47;;
22665;SDS011;11499;49.486;11.104;2022-10-14T05:57:24;18.07;;;15.87;;
22665;SDS011;11499;49.486;11.104;2022-10-14T05:59:51;18.13;;;14.90;;
22665;SDS011;11499;49.486;11.104;2022-10-14T06:02:16;18.10;;;15.60;;
22665;SDS011;11499;49.486;11.104;2022-10-14T06:04:42;19.03;;;15.10;;
22665;SDS011;11499;49.486;11.104;2022-10-14T06:07:08;17.37;;;15.07;;
22665;SDS011;11499;49.486;11.104;2022-10-14T06:09:34;22.23;;;15.23;;
22665;SDS011;11499;49.486;11.104;2022-10-14T06:12:03;23.07;;;15.67;;
22665;SDS011;11499;49.486;11.104;2022-10-14T06:17:08;20.00;;;14.83;;
22665;SDS011;11499;49.486;11.104;2022-10-14T06:19:34;21.07;;;15.10;;
22665;SDS011;11499;49.486;11.104;2022-10-14T06:21:59;18.87;;;13.97;;
22665;SDS011;11499;49.486;11.104;2022-10-14T06:24:25;20.20;;;14.43;;
22665;SDS011;11499;49.486;11.104;2022-10-14T06:26:51;17.73;;;15.93;;
22665;SDS011;11499;49.486;11.104;2022-10-14T06:29:16;17.77;;;13.57;;
22665;SDS011;11499;49.486;11.104;2022-10-14T06:31:42;17.70;;;13.93;;
22665;SDS011;11499;49.486;11.104;2022-10-14T06:34:08;18.77;;;14.77;;
22665;SDS011;11499;49.486;11.104;2022-10-14T06:36:33;19.47;;;14.47;;
22665;SDS011;11499;49.486;11.104;2022-10-14T06:39:00;18.00;;;14.93;;
22665;SDS011;11499;49.486;11.104;2022-10-14T06:44:22;16.60;;;13.37;;
22665;SDS011;11499;49.486;11.104;2022-10-14T06:46:47;18.30;;;13.43;;
22665;SDS011;11499;49.486;11.104;2022-10-14T06:49:13;18.63;;;13.07;;
22665;SDS011;11499;49.486;11.104;2022-10-14T06:51:38;15.33;;;13.53;;
22665;SDS011;11499;49.486;11.104;2022-10-14T06:54:04;20.30;;;13.30;;
22665;SDS011;11499;49.486;11.104;2022-10-14T06:56:31;22.17;;;13.93;;
22665;SDS011;11499;49.486;11.104;2022-10-14T06:58:57;15.77;;;13.80;;
22665;SDS011;11499;49.486;11.104;2022-10-14T07:01:23;19.17;;;13.40;;
22665;SDS011;11499;49.486;11.104;2022-10-14T07:03:48;18.33;;;13.37;;
22665;SDS011;11499;49.486;11.104;2022-10-14T07:06:14;17.40;;;14.17;;
22665;SDS011;11499;49.486;11.104;2022-10-14T07:11:30;16.67;;;13.20;;
22665;SDS011;11499;49.486;11.104;2022-10-14T07:13:55;19.50;;;14.20;;
22665;SDS011;11499;49.486;11.104;2022-10-14T07:16:21;15.00;;;13.37;;
22665;SDS011;11499;49.486;11.104;2022-10-14T07:18:47;16.17;;;13.90;;
22665;SDS011;11499;49.486;11.104;2022-10-14T07:21:13;18.23;;;13.23;;
22665;SDS011;11499;49.486;11.104;2022-10-14T07:23:39;18.20;;;12.67;;
22665;SDS011;11499;49.486;11.104;2022-10-14T07:26:04;16.50;;;13.90;;
22665;SDS011;11499;49.486;11.104;2022-10-14T07:28:30;19.90;;;13.97;;
22665;SDS011;11499;49.486;11.104;2022-10-14T07:31:05;20.43;;;15.07;;
22665;SDS011;11499;49.486;11.104;2022-10-14T07:33:33;16.27;;;13.30;;
22665;SDS011;11499;49.486;11.104;2022-10-14T07:38:49;15.17;;;13.57;;
22665;SDS011;11499;49.486;11.104;2022-10-14T07:41:16;16.17;;;13.90;;
22665;SDS011;11499;49.486;11.104;2022-10-14T07:43:47;14.90;;;13.43;;
22665;SDS011;11499;49.486;11.104;2022-10-14T07:46:19;14.77;;;13.37;;
22665;SDS011;11499;49.486;11.104;2022-10-14T07:48:53;19.33;;;13.43;;
22665;SDS011;11499;49.486;11.104;2022-10-14T07:51:19;14.73;;;13.00;;
22665;SDS011;11499;49.486;11.104;2022-10-14T07:53:45;15.33;;;13.23;;
22665;SDS011;11499;49.486;11.104;2022-10-14T07:56:12;18.23;;;13.20;;
22665;SDS011;11499;49.486;11.104;2022-10-14T07:58:38;15.60;;;13.90;;
22665;SDS011;11499;49.486;11.104;2022-10-14T08:01:03;17.33;;;13.93;;
22665;SDS011;11499;49.486;11.104;2022-10-14T08:05:49;15.03;;;12.53;;
22665;SDS011;11499;49.486;11.104;2022-10-14T08:08:21;16.93;;;13.90;;
22665;SDS011;11499;49.486;11.104;2022-10-14T08:10:48;16.57;;;13.23;;
22665;SDS011;11499;49.486;11.104;2022-10-14T08:13:13;19.20;;;13.37;;
22665;SDS011;11499;49.486;11.104;2022-10-14T08:15:39;17.47;;;13.10;;
22665;SDS011;11499;49.486;11.104;2022-10-14T08:18:07;16.17;;;14.13;;
22665;SDS011;11499;49.486;11.104;2022-10-14T08:20:33;14.43;;;12.63;;
22665;SDS011;11499;49.486;11.104;2022-10-14T08:22:59;16.67;;;12.53;;
22665;SDS011;11499;49.486;11.104;2022-10-14T08:25:25;15.83;;;13.60;;
22665;SDS011;11499;49.486;11.104;2022-10-14T08:27:51;16.93;;;13.73;;
22665;SDS011;11499;49.486;11.104;2022-10-14T08:32:11;15.93;;;14.23;;
22665;SDS011;11499;49.486;11.104;2022-10-14T08:34:37;16.67;;;13.13;;
22665;SDS011;11499;49.486;11.104;2022-10-14T08:37:02;15.60;;;13.10;;
22665;SDS011;11499;49.486;11.104;2022-10-14T08:39:28;17.70;;;13.80;;
22665;SDS011;11499;49.486;11.104;2022-10-14T08:42:01;20.20;;;13.37;;
22665;SDS011;11499;49.486;11.104;2022-10-14T08:47:20;15.02;;;13.43;;
22665;SDS011;11499;49.486;11.104;2022-10-14T08:49:58;13.65;;;12.25;;
22665;SDS011;11499;49.486;11.104;2022-10-14T08:57:37;14.85;;;12.98;;
22665;SDS011;11499;49.486;11.104;2022-10-14T09:00:15;14.00;;;12.40;;
22665;SDS011;11499;49.486;11.104;2022-10-14T09:02:43;13.68;;;12.15;;
22665;SDS011;11499;49.486;11.104;2022-10-14T09:05:15;13.10;;;11.45;;
22665;SDS011;11499;49.486;11.104;2022-10-14T09:07:43;15.35;;;12.05;;
22665;SDS011;11499;49.486;11.104;2022-10-14T09:10:13;12.23;;;11.00;;
22665;SDS011;11499;49.486;11.104;2022-10-14T09:12:46;12.13;;;10.82;;
22665;SDS011;11499;49.486;11.104;2022-10-14T09:18:01;15.70;;;11.30;;
22665;SDS011;11499;49.486;11.104;2022-10-14T09:20:30;11.80;;;10.02;;
22665;SDS011;11499;49.486;11.104;2022-10-14T09:25:35;11.73;;;10.20;;
22665;SDS011;11499;49.486;11.104;2022-10-14T09:28:02;12.73;;;10.07;;
22665;SDS011;11499;49.486;11.104;2022-10-14T09:30:29;9.85;;;8.85;;
22665;SDS011;11499;49.486;11.104;2022-10-14T09:32:59;9.95;;;8.93;;
22665;SDS011;11499;49.486;11.104;2022-10-14T09:38:01;12.68;;;8.52;;
22665;SDS011;11499;49.486;11.104;2022-10-14T09:40:28;10.77;;;8.75;;
22665;SDS011;11499;49.486;11.104;2022-10-14T09:43:16;12.25;;;8.40;;
22665;SDS011;11499;49.486;11.104;2022-10-14T09:53:43;11.65;;;7.28;;
22665;SDS011;11499;49.486;11.104;2022-10-14T09:56:13;11.55;;;7.47;;
22665;SDS011;11499;49.486;11.104;2022-10-14T09:58:46;10.40;;;6.78;;
22665;SDS011;11499;49.486;11.104;2022-10-14T10:01:20;8.45;;;7.70;;
22665;SDS011;11499;49.486;11.104;2022-10-14T10:03:48;8.27;;;6.75;;
22665;SDS011;11499;49.486;11.104;2022-10-14T10:06:16;10.23;;;5.75;;
22665;SDS011;11499;49.486;11.104;2022-10-14T10:11:32;11.43;;;6.60;;
22665;SDS011;11499;49.486;11.104;2022-10-14T10:19:39;8.02;;;6.85;;
22665;SDS011;11499;49.486;11.104;2022-10-14T10:24:42;7.82;;;5.57;;
22665;SDS011;11499;49.486;11.104;2022-10-14T10:27:26;8.52;;;5.65;;
22665;SDS011;11499;49.486;11.104;2022-10-14T10:29:52;6.30;;;5.70;;
22665;SDS011;11499;49.486;11.104;2022-10-14T10:32:26;6.53;;;5.47;;
22665;SDS011;11499;49.486;11.104;2022-10-14T10:37:54;9.38;;;5.95;;
22665;SDS011;11499;49.486;11.104;2022-10-14T10:40:26;8.98;;;5.65;;
22665;SDS011;11499;49.486;11.104;2022-10-14T10:46:11;5.88;;;4.85;;
22665;SDS011;11499;49.486;11.104;2022-10-14T10:48:55;9.93;;;5.35;;
22665;SDS011;11499;49.486;11.104;2022-10-14T10:51:39;8.70;;;5.40;;
22665;SDS011;11499;49.486;11.104;2022-10-14T10:57:08;7.75;;;5.47;;
22665;SDS011;11499;49.486;11.104;2022-10-14T11:00:05;8.23;;;6.07;;
22665;SDS011;11499;49.486;11.104;2022-10-14T11:05:46;5.97;;;5.18;;
22665;SDS011;11499;49.486;11.104;2022-10-14T11:08:28;5.78;;;4.78;;
22665;SDS011;11499;49.486;11.104;2022-10-14T11:15:51;8.45;;;4.60;;
22665;SDS011;11499;49.486;11.104;2022-10-14T11:21:03;5.93;;;5.28;;
22665;SDS011;11499;49.486;11.104;2022-10-14T11:26:14;9.45;;;6.25;;
22665;SDS011;11499;49.486;11.104;2022-10-14T11:31:46;9.50;;;5.03;;
22665;SDS011;11499;49.486;11.104;2022-10-14T11:34:39;5.93;;;5.35;;
22665;SDS011;11499;49.486;11.104;2022-10-14T11:41:16;7.30;;;5.50;;
22665;SDS011;11499;49.486;11.104;2022-10-14T11:43:40;6.60;;;4.88;;
22665;SDS011;11499;49.486;11.104;2022-10-14T11:46:13;8.05;;;4.60;;
22665;SDS011;11499;49.486;11.104;2022-10-14T11:48:46;6.43;;;4.43;;
22665;SDS011;11499;49.486;11.104;2022-10-14T11:51:48;5.70;;;4.43;;
22665;SDS011;11499;49.486;11.104;2022-10-14T11:56:48;5.75;;;5.15;;
22665;SDS011;11499;49.486;11.104;2022-10-14T12:06:05;7.97;;;5.00;;
22665;SDS011;11499;49.486;11.104;2022-10-14T12:11:57;5.80;;;5.18;;
22665;SDS011;11499;49.486;11.104;2022-10-14T12:14:43;9.80;;;5.18;;
22665;SDS011;11499;49.486;11.104;2022-10-14T12:17:17;8.10;;;5.50;;
22665;SDS011;11499;49.486;11.104;2022-10-14T12:19:46;7.97;;;4.88;;
22665;SDS011;11499;49.486;11.104;2022-10-14T12:22:17;5.85;;;5.20;;
22665;SDS011;11499;49.486;11.104;2022-10-14T12:25:06;5.80;;;4.90;;
22665;SDS011;11499;49.486;11.104;2022-10-14T12:27:36;6.32;;;5.13;;
22665;SDS011;11499;49.486;11.104;2022-10-14T12:30:03;6.03;;;5.00;;
22665;SDS011;11499;49.486;11.104;2022-10-14T12:32:29;6.22;;;4.95;;
22665;SDS011;11499;49.486;11.104;2022-10-14T12:36:48;8.18;;;5.53;;
22665;SDS011;11499;49.486;11.104;2022-10-14T12:44:31;5.93;;;4.78;;
22665;SDS011;11499;49.486;11.104;2022-10-14T12:47:14;6.72;;;4.82;;
22665;SDS011;11499;49.486;11.104;2022-10-14T12:49:41;5.65;;;4.97;;
22665;SDS011;11499;49.486;11.104;2022-10-14T12:52:20;7.78;;;4.70;;
22665;SDS011;11499;49.486;11.104;2022-10-14T12:54:53;6.93;;;5.72;;
22665;SDS011;11499;49.486;11.104;2022-10-14T12:57:29;6.22;;;5.60;;
22665;SDS011;11499;49.486;11.104;2022-10-14T12:59:58;6.38;;;4.82;;
22665;SDS011;11499;49.486;11.104;2022-10-14T13:02:30;7.35;;;4.57;;
22665;SDS011;11499;49.486;11.104;2022-10-14T13:10:47;7.18;;;4.82;;
22665;SDS011;11499;49.486;11.104;2022-10-14T13:16:02;7.55;;;4.78;;
22665;SDS011;11499;49.486;11.104;2022-10-14T13:21:09;4.07;;;3.38;;
22665;SDS011;11499;49.486;11.104;2022-10-14T13:23:45;9.25;;;3.97;;
22665;SDS011;11499;49.486;11.104;2022-10-14T13:26:18;4.68;;;3.28;;
22665;SDS011;11499;49.486;11.104;2022-10-14T13:28:52;4.95;;;3.28;;
22665;SDS011;11499;49.486;11.104;2022-10-14T13:31:29;5.30;;;3.55;;
22665;SDS011;11499;49.486;11.104;2022-10-14T13:36:21;5.57;;;3.58;;
22665;SDS011;11499;49.486;11.104;2022-10-14T13:38:56;6.25;;;3.60;;
22665;SDS011;11499;49.486;11.104;2022-10-14T13:41:24;5.53;;;3.75;;
22665;SDS011;11499;49.486;11.104;2022-10-14T13:43:52;6.45;;;3.70;;
22665;SDS011;11499;49.486;11.104;2022-10-14T13:46:27;5.70;;;3.53;;
22665;SDS011;11499;49.486;11.104;2022-10-14T13:49:02;9.15;;;3.65;;
22665;SDS011;11499;49.486;11.104;2022-10-14T13:51:43;8.27;;;3.60;;
22665;SDS011;11499;49.486;11.104;2022-10-14T13:56:53;5.28;;;3.60;;
22665;SDS011;11499;49.486;11.104;2022-10-14T14:02:16;9.13;;;4.07;;
22665;SDS011;11499;49.486;11.104;2022-10-14T14:04:51;5.35;;;3.25;;
22665;SDS011;11499;49.486;11.104;2022-10-14T14:07:20;5.72;;;3.45;;
22665;SDS011;11499;49.486;11.104;2022-10-14T14:09:49;6.80;;;3.67;;
22665;SDS011;11499;49.486;11.104;2022-10-14T14:12:17;5.30;;;3.72;;
22665;SDS011;11499;49.486;11.104;2022-10-14T14:14:43;6.95;;;3.70;;
22665;SDS011;11499;49.486;11.104;2022-10-14T14:17:11;8.18;;;3.53;;
22665;SDS011;11499;49.486;11.104;2022-10-14T14:19:44;5.35;;;3.10;;
22665;SDS011;11499;49.486;11.104;2022-10-14T14:22:27;4.43;;;2.92;;
22665;SDS011;11499;49.486;11.104;2022-10-14T14:28:37;8.13;;;3.53;;
22665;SDS011;11499;49.486;11.104;2022-10-14T14:31:02;3.60;;;2.85;;
22665;SDS011;11499;49.486;11.104;2022-10-14T14:33:29;6.60;;;3.30;;
22665;SDS011;11499;49.486;11.104;2022-10-14T14:35:59;4.50;;;3.22;;
22665;SDS011;11499;49.486;11.104;2022-10-14T14:38:28;4.97;;;3.30;;
22665;SDS011;11499;49.486;11.104;2022-10-14T14:43:30;5.45;;;2.95;;
22665;SDS011;11499;49.486;11.104;2022-10-14T14:45:57;7.97;;;3.38;;
22665;SDS011;11499;49.486;11.104;2022-10-14T14:48:25;5.57;;;3.13;;
22665;SDS011;11499;49.486;11.104;2022-10-14T14:50:51;8.65;;;3.55;;
22665;SDS011;11499;49.486;11.104;2022-10-14T14:54:53;4.18;;;2.90;;
22665;SDS011;11499;49.486;11.104;2022-10-14T14:57:18;5.35;;;2.90;;
22665;SDS011;11499;49.486;11.104;2022-10-14T14:59:51;3.85;;;2.90;;
22665;SDS011;11499;49.486;11.104;2022-10-14T15:02:21;7.18;;;3.08;;
22665;SDS011;11499;49.486;11.104;2022-10-14T15:04:57;4.72;;;3.10;;
22665;SDS011;11499;49.486;11.104;2022-10-14T15:07:27;4.40;;;3.35;;
22665;SDS011;11499;49.486;11.104;2022-10-14T15:09:54;2.95;;;2.63;;
22665;SDS011;11499;49.486;11.104;2022-10-14T15:15:01;6.72;;;4.03;;
22665;SDS011;11499;49.486;11.104;2022-10-14T15:17:35;5.03;;;3.05;;
22665;SDS011;11499;49.486;11.104;2022-10-14T15:22:44;5.07;;;3.28;;
22665;SDS011;11499;49.486;11.104;2022-10-14T15:27:48;6.97;;;3.38;;
22665;SDS011;11499;49.486;11.104;2022-10-14T15:33:03;6.30;;;3.63;;
22665;SDS011;11499;49.486;11.104;2022-10-14T15:35:40;6.05;;;3.53;;
22665;SDS011;11499;49.486;11.104;2022-10-14T15:38:10;3.85;;;3.47;;
22665;SDS011;11499;49.486;11.104;2022-10-14T15:40:38;4.63;;;3.38;;
22665;SDS011;11499;49.486;11.104;2022-10-14T15:43:04;6.38;;;3.50;;
22665;SDS011;11499;49.486;11.104;2022-10-14T15:45:35;6.28;;;3.70;;
22665;SDS011;11499;49.486;11.104;2022-10-14T15:48:01;5.28;;;3.72;;
22665;SDS011;11499;49.486;11.104;2022-10-14T15:52:52;6.57;;;3.95;;
22665;SDS011;11499;49.486;11.104;2022-10-14T15:55:20;6.70;;;3.50;;
22665;SDS011;11499;49.486;11.104;2022-10-14T15:57:50;5.95;;;4.10;;
22665;SDS011;11499;49.486;11.104;2022-10-14T16:00:16;6.00;;;4.25;;
22665;SDS011;11499;49.486;11.104;2022-10-14T16:02:44;6.10;;;4.30;;
22665;SDS011;11499;49.486;11.104;2022-10-14T16:05:11;4.47;;;3.70;;
22665;SDS011;11499;49.486;11.104;2022-10-14T16:07:37;6.30;;;4.25;;
22665;SDS011;11499;49.486;11.104;2022-10-14T16:10:03;4.18;;;3.78;;
22665;SDS011;11499;49.486;11.104;2022-10-14T16:12:30;7.82;;;4.13;;
22665;SDS011;11499;49.486;11.104;2022-10-14T16:17:32;5.78;;;4.40;;
22665;SDS011;11499;49.486;11.104;2022-10-14T16:19:58;7.78;;;4.75;;
22665;SDS011;11499;49.486;11.104;2022-10-14T16:22:23;4.65;;;3.97;;
22665;SDS011;11499;49.486;11.104;2022-10-14T16:24:49;5.80;;;4.40;;
22665;SDS011;11499;49.486;11.104;2022-10-14T16:27:14;5.68;;;4.45;;
22665;SDS011;11499;49.486;11.104;2022-10-14T16:29:40;6.00;;;4.05;;
22665;SDS011;11499;49.486;11.104;2022-10-14T16:32:07;5.80;;;4.15;;
22665;SDS011;11499;49.486;11.104;2022-10-14T16:34:33;7.32;;;4.05;;
22665;SDS011;11499;49.486;11.104;2022-10-14T16:36:59;4.22;;;3.53;;
22665;SDS011;11499;49.486;11.104;2022-10-14T16:39:24;6.60;;;4.10;;
22665;SDS011;11499;49.486;11.104;2022-10-14T16:41:50;6.57;;;3.70;;
22665;SDS011;11499;49.486;11.104;2022-10-14T16:47:03;3.83;;;3.42;;
22665;SDS011;11499;49.486;11.104;2022-10-14T16:49:42;5.13;;;3.53;;
22665;SDS011;11499;49.486;11.104;2022-10-14T16:52:08;8.00;;;3.90;;
22665;SDS011;11499;49.486;11.104;2022-10-14T16:54:34;5.78;;;3.50;;
22665;SDS011;11499;49.486;11.104;2022-10-14T16:57:00;6.60;;;3.70;;
22665;SDS011;11499;49.486;11.104;2022-10-14T16:59:26;3.78;;;3.38;;
22665;SDS011;11499;49.486;11.104;2022-10-14T17:01:52;4.93;;;3.20;;
22665;SDS011;11499;49.486;11.104;2022-10-14T17:04:19;6.20;;;3.50;;
22665;SDS011;11499;49.486;11.104;2022-10-14T17:06:45;4.72;;;3.15;;
22665;SDS011;11499;49.486;11.104;2022-10-14T17:09:11;3.80;;;3.40;;
22665;SDS011;11499;49.486;11.104;2022-10-14T17:11:38;4.97;;;3.20;;
22665;SDS011;11499;49.486;11.104;2022-10-14T17:14:06;6.70;;;3.33;;
22665;SDS011;11499;49.486;11.104;2022-10-14T17:18:01;5.83;;;3.33;;
22665;SDS011;11499;49.486;11.104;2022-10-14T17:20:26;4.70;;;3.00;;
22665;SDS011;11499;49.486;11.104;2022-10-14T17:22:52;4.37;;;3.50;;
22665;SDS011;11499;49.486;11.104;2022-10-14T17:25:19;3.73;;;3.10;;
22665;SDS011;11499;49.486;11.104;2022-10-14T17:27:44;6.55;;;3.42;;
22665;SDS011;11499;49.486;11.104;2022-10-14T17:30:10;5.22;;;3.40;;
22665;SDS011;11499;49.486;11.104;2022-10-14T17:32:36;4.90;;;3.50;;
22665;SDS011;11499;49.486;11.104;2022-10-14T17:35:01;6.27;;;4.67;;
22665;SDS011;11499;49.486;11.104;2022-10-14T17:37:27;6.13;;;4.43;;
22665;SDS011;11499;49.486;11.104;2022-10-14T17:39:54;6.07;;;4.97;;
22665;SDS011;11499;49.486;11.104;2022-10-14T17:44:57;6.27;;;5.03;;
22665;SDS011;11499;49.486;11.104;2022-10-14T17:47:23;7.33;;;4.60;;
22665;SDS011;11499;49.486;11.104;2022-10-14T17:49:50;9.10;;;4.90;;
22665;SDS011;11499;49.486;11.104;2022-10-14T17:52:16;8.03;;;4.60;;
22665;SDS011;11499;49.486;11.104;2022-10-14T17:54:41;5.07;;;4.43;;
22665;SDS011;11499;49.486;11.104;2022-10-14T17:57:07;6.13;;;5.00;;
22665;SDS011;11499;49.486;11.104;2022-10-14T17:59:32;4.70;;;4.20;;